sensor_id;sensor_type;location;lat;lon;timestamp;temperature;humidity
78649;DHT22;67962;47.310;9.642;2023-08-01T00:01:32;21.10;66.50
78649;DHT22;67962;47.310;9.642;2023-08-01T00:03:58;21.20;66.10
78649;DHT22;67962;47.310;9.642;2023-08-01T00:06:23;21.10;66.30
78649;DHT22;67962;47.310;9.642;2023-08-01T00:08:50;21.20;66.80
78649;DHT22;67962;47.310;9.642;2023-08-01T00:11:16;21.20;66.90
78649;DHT22;67962;47.310;9.642;2023-08-01T00:13:42;21.20;66.60
78649;DHT22;67962;47.310;9.642;2023-08-01T00:16:11;21.10;66.60
78649;DHT22;67962;47.310;9.642;2023-08-01T00:18:37;21.10;67.10
78649;DHT22;67962;47.310;9.642;2023-08-01T00:21:04;21.20;67.10
78649;DHT22;67962;47.310;9.642;2023-08-01T00:23:37;21.10;66.90
78649;DHT22;67962;47.310;9.642;2023-08-01T00:26:04;21.10;67.00
78649;DHT22;67962;47.310;9.642;2023-08-01T00:28:30;21.00;67.00
78649;DHT22;67962;47.310;9.642;2023-08-01T00:31:04;21.10;67.00
78649;DHT22;67962;47.310;9.642;2023-08-01T00:33:31;21.10;66.60
78649;DHT22;67962;47.310;9.642;2023-08-01T00:35:56;21.20;66.40
78649;DHT22;67962;47.310;9.642;2023-08-01T00:38:22;21.20;66.40
78649;DHT22;67962;47.310;9.642;2023-08-01T00:40:48;21.20;66.10
78649;DHT22;67962;47.310;9.642;2023-08-01T00:43:13;21.20;65.70
78649;DHT22;67962;47.310;9.642;2023-08-01T00:45:39;21.20;66.00
78649;DHT22;67962;47.310;9.642;2023-08-01T00:48:06;21.10;66.30
78649;DHT22;67962;47.310;9.642;2023-08-01T00:50:33;21.00;66.20
78649;DHT22;67962;47.310;9.642;2023-08-01T00:52:59;21.00;65.90
78649;DHT22;67962;47.310;9.642;2023-08-01T00:55:27;21.00;66.30
78649;DHT22;67962;47.310;9.642;2023-08-01T00:57:55;20.90;66.60
78649;DHT22;67962;47.310;9.642;2023-08-01T01:00:21;20.80;66.90
78649;DHT22;67962;47.310;9.642;2023-08-01T01:02:47;20.80;67.00
78649;DHT22;67962;47.310;9.642;2023-08-01T01:05:14;20.90;67.30
78649;DHT22;67962;47.310;9.642;2023-08-01T01:07:41;20.90;67.20
78649;DHT22;67962;47.310;9.642;2023-08-01T01:10:08;20.90;67.10
78649;DHT22;67962;47.310;9.642;2023-08-01T01:12:33;20.90;67.20
78649;DHT22;67962;47.310;9.642;2023-08-01T01:14:59;20.80;67.40
78649;DHT22;67962;47.310;9.642;2023-08-01T01:17:25;20.80;67.70
78649;DHT22;67962;47.310;9.642;2023-08-01T01:19:50;20.90;67.60
78649;DHT22;67962;47.310;9.642;2023-08-01T01:22:17;20.80;67.60
78649;DHT22;67962;47.310;9.642;2023-08-01T01:24:44;20.80;67.10
78649;DHT22;67962;47.310;9.642;2023-08-01T01:27:12;20.80;67.10
78649;DHT22;67962;47.310;9.642;2023-08-01T01:29:38;20.80;67.00
78649;DHT22;67962;47.310;9.642;2023-08-01T01:32:05;20.80;66.70
78649;DHT22;67962;47.310;9.642;2023-08-01T01:34:31;20.90;66.30
78649;DHT22;67962;47.310;9.642;2023-08-01T01:36:57;20.80;66.20
78649;DHT22;67962;47.310;9.642;2023-08-01T01:39:23;20.80;66.20
78649;DHT22;67962;47.310;9.642;2023-08-01T01:41:48;20.80;66.10
78649;DHT22;67962;47.310;9.642;2023-08-01T01:44:14;20.80;65.90
78649;DHT22;67962;47.310;9.642;2023-08-01T01:46:40;20.70;65.80
78649;DHT22;67962;47.310;9.642;2023-08-01T01:49:06;20.70;66.10
78649;DHT22;67962;47.310;9.642;2023-08-01T01:51:32;20.80;66.00
78649;DHT22;67962;47.310;9.642;2023-08-01T01:53:58;20.80;65.90
78649;DHT22;67962;47.310;9.642;2023-08-01T01:56:23;20.80;65.90
78649;DHT22;67962;47.310;9.642;2023-08-01T01:58:49;20.90;66.10
78649;DHT22;67962;47.310;9.642;2023-08-01T02:01:15;20.90;65.90
78649;DHT22;67962;47.310;9.642;2023-08-01T02:03:40;20.80;66.00
78649;DHT22;67962;47.310;9.642;2023-08-01T02:06:06;20.80;65.60
78649;DHT22;67962;47.310;9.642;2023-08-01T02:08:32;20.80;65.60
78649;DHT22;67962;47.310;9.642;2023-08-01T02:10:57;20.80;65.40
78649;DHT22;67962;47.310;9.642;2023-08-01T02:13:27;20.90;65.40
78649;DHT22;67962;47.310;9.642;2023-08-01T02:15:53;20.80;65.40
78649;DHT22;67962;47.310;9.642;2023-08-01T02:18:19;20.90;65.40
78649;DHT22;67962;47.310;9.642;2023-08-01T02:20:45;20.80;65.00
78649;DHT22;67962;47.310;9.642;2023-08-01T02:23:11;20.80;65.10
78649;DHT22;67962;47.310;9.642;2023-08-01T02:25:40;20.80;65.30
78649;DHT22;67962;47.310;9.642;2023-08-01T02:28:07;20.80;65.30
78649;DHT22;67962;47.310;9.642;2023-08-01T02:30:36;20.80;65.40
78649;DHT22;67962;47.310;9.642;2023-08-01T02:33:01;20.80;65.10
78649;DHT22;67962;47.310;9.642;2023-08-01T02:35:28;20.80;66.20
78649;DHT22;67962;47.310;9.642;2023-08-01T02:37:54;20.80;65.30
78649;DHT22;67962;47.310;9.642;2023-08-01T02:40:20;20.80;65.40
78649;DHT22;67962;47.310;9.642;2023-08-01T02:42:46;20.80;65.90
78649;DHT22;67962;47.310;9.642;2023-08-01T02:45:11;20.80;65.10
78649;DHT22;67962;47.310;9.642;2023-08-01T02:47:38;20.70;65.90
78649;DHT22;67962;47.310;9.642;2023-08-01T02:50:04;20.70;66.20
78649;DHT22;67962;47.310;9.642;2023-08-01T02:52:30;20.70;66.20
78649;DHT22;67962;47.310;9.642;2023-08-01T02:54:56;20.70;66.10
78649;DHT22;67962;47.310;9.642;2023-08-01T02:57:22;20.80;65.80
78649;DHT22;67962;47.310;9.642;2023-08-01T02:59:48;20.70;65.60
78649;DHT22;67962;47.310;9.642;2023-08-01T03:02:13;20.80;65.90
78649;DHT22;67962;47.310;9.642;2023-08-01T03:04:39;20.70;65.80
78649;DHT22;67962;47.310;9.642;2023-08-01T03:07:04;20.70;65.90
78649;DHT22;67962;47.310;9.642;2023-08-01T03:09:32;20.70;65.80
78649;DHT22;67962;47.310;9.642;2023-08-01T03:11:58;20.80;65.70
78649;DHT22;67962;47.310;9.642;2023-08-01T03:14:23;20.80;65.30
78649;DHT22;67962;47.310;9.642;2023-08-01T03:16:49;20.80;65.20
78649;DHT22;67962;47.310;9.642;2023-08-01T03:19:15;20.70;65.00
78649;DHT22;67962;47.310;9.642;2023-08-01T03:21:40;20.70;65.00
78649;DHT22;67962;47.310;9.642;2023-08-01T03:24:06;20.70;65.50
78649;DHT22;67962;47.310;9.642;2023-08-01T03:26:35;20.70;65.80
78649;DHT22;67962;47.310;9.642;2023-08-01T03:29:01;20.70;65.80
78649;DHT22;67962;47.310;9.642;2023-08-01T03:31:27;20.70;66.00
78649;DHT22;67962;47.310;9.642;2023-08-01T03:33:53;20.70;66.00
78649;DHT22;67962;47.310;9.642;2023-08-01T03:36:19;20.70;65.80
78649;DHT22;67962;47.310;9.642;2023-08-01T03:38:45;20.60;65.60
78649;DHT22;67962;47.310;9.642;2023-08-01T03:41:11;20.60;65.80
78649;DHT22;67962;47.310;9.642;2023-08-01T03:43:37;20.60;66.10
78649;DHT22;67962;47.310;9.642;2023-08-01T03:46:03;20.60;66.40
78649;DHT22;67962;47.310;9.642;2023-08-01T03:48:28;20.60;67.00
78649;DHT22;67962;47.310;9.642;2023-08-01T03:50:54;20.50;67.10
78649;DHT22;67962;47.310;9.642;2023-08-01T03:53:20;20.60;67.20
78649;DHT22;67962;47.310;9.642;2023-08-01T03:55:46;20.60;67.00
78649;DHT22;67962;47.310;9.642;2023-08-01T03:58:13;20.50;67.50
78649;DHT22;67962;47.310;9.642;2023-08-01T04:00:38;20.40;67.40
78649;DHT22;67962;47.310;9.642;2023-08-01T04:03:04;20.40;67.30
78649;DHT22;67962;47.310;9.642;2023-08-01T04:05:30;20.50;67.00
78649;DHT22;67962;47.310;9.642;2023-08-01T04:07:56;20.60;66.60
78649;DHT22;67962;47.310;9.642;2023-08-01T04:10:22;20.50;67.20
78649;DHT22;67962;47.310;9.642;2023-08-01T04:12:48;20.50;67.70
78649;DHT22;67962;47.310;9.642;2023-08-01T04:15:14;20.40;67.70
78649;DHT22;67962;47.310;9.642;2023-08-01T04:17:39;20.40;67.50
78649;DHT22;67962;47.310;9.642;2023-08-01T04:20:06;20.40;67.60
78649;DHT22;67962;47.310;9.642;2023-08-01T04:22:32;20.50;67.80
78649;DHT22;67962;47.310;9.642;2023-08-01T04:24:57;20.50;67.70
78649;DHT22;67962;47.310;9.642;2023-08-01T04:27:23;20.60;67.30
78649;DHT22;67962;47.310;9.642;2023-08-01T04:29:49;20.60;67.70
78649;DHT22;67962;47.310;9.642;2023-08-01T04:32:15;20.50;67.80
78649;DHT22;67962;47.310;9.642;2023-08-01T04:34:43;20.60;68.60
78649;DHT22;67962;47.310;9.642;2023-08-01T04:37:09;20.50;69.10
78649;DHT22;67962;47.310;9.642;2023-08-01T04:39:36;20.40;69.20
78649;DHT22;67962;47.310;9.642;2023-08-01T04:42:02;20.40;68.90
78649;DHT22;67962;47.310;9.642;2023-08-01T04:44:27;20.40;69.80
78649;DHT22;67962;47.310;9.642;2023-08-01T04:46:57;20.30;70.00
78649;DHT22;67962;47.310;9.642;2023-08-01T04:49:23;20.30;69.40
78649;DHT22;67962;47.310;9.642;2023-08-01T04:51:50;20.30;69.20
78649;DHT22;67962;47.310;9.642;2023-08-01T04:54:15;20.30;69.80
78649;DHT22;67962;47.310;9.642;2023-08-01T04:56:41;20.20;70.30
78649;DHT22;67962;47.310;9.642;2023-08-01T04:59:07;20.10;71.90
78649;DHT22;67962;47.310;9.642;2023-08-01T05:01:33;20.00;70.70
78649;DHT22;67962;47.310;9.642;2023-08-01T05:03:59;20.10;70.40
78649;DHT22;67962;47.310;9.642;2023-08-01T05:06:24;20.20;70.90
78649;DHT22;67962;47.310;9.642;2023-08-01T05:08:50;20.10;71.40
78649;DHT22;67962;47.310;9.642;2023-08-01T05:11:16;20.00;71.70
78649;DHT22;67962;47.310;9.642;2023-08-01T05:13:41;20.00;71.70
78649;DHT22;67962;47.310;9.642;2023-08-01T05:16:07;20.10;71.40
78649;DHT22;67962;47.310;9.642;2023-08-01T05:18:33;20.20;70.40
78649;DHT22;67962;47.310;9.642;2023-08-01T05:20:58;20.10;70.00
78649;DHT22;67962;47.310;9.642;2023-08-01T05:23:24;20.00;70.20
78649;DHT22;67962;47.310;9.642;2023-08-01T05:25:49;20.00;70.20
78649;DHT22;67962;47.310;9.642;2023-08-01T05:28:15;20.10;69.90
78649;DHT22;67962;47.310;9.642;2023-08-01T05:30:41;20.20;69.50
78649;DHT22;67962;47.310;9.642;2023-08-01T05:33:07;20.20;69.40
78649;DHT22;67962;47.310;9.642;2023-08-01T05:35:32;20.20;69.20
78649;DHT22;67962;47.310;9.642;2023-08-01T05:37:58;20.30;69.00
78649;DHT22;67962;47.310;9.642;2023-08-01T05:40:25;20.40;68.50
78649;DHT22;67962;47.310;9.642;2023-08-01T05:42:51;20.40;68.40
78649;DHT22;67962;47.310;9.642;2023-08-01T05:45:16;20.40;68.20
78649;DHT22;67962;47.310;9.642;2023-08-01T05:47:42;20.40;68.20
78649;DHT22;67962;47.310;9.642;2023-08-01T05:50:08;20.40;68.60
78649;DHT22;67962;47.310;9.642;2023-08-01T05:52:34;20.40;68.20
78649;DHT22;67962;47.310;9.642;2023-08-01T05:55:00;20.40;67.50
78649;DHT22;67962;47.310;9.642;2023-08-01T05:57:26;20.40;67.00
78649;DHT22;67962;47.310;9.642;2023-08-01T05:59:51;20.40;66.90
78649;DHT22;67962;47.310;9.642;2023-08-01T06:02:17;20.50;67.10
78649;DHT22;67962;47.310;9.642;2023-08-01T06:04:43;20.50;67.00
78649;DHT22;67962;47.310;9.642;2023-08-01T06:07:08;20.50;66.30
78649;DHT22;67962;47.310;9.642;2023-08-01T06:09:34;20.50;66.90
78649;DHT22;67962;47.310;9.642;2023-08-01T06:12:00;20.50;67.10
78649;DHT22;67962;47.310;9.642;2023-08-01T06:14:25;20.50;67.30
78649;DHT22;67962;47.310;9.642;2023-08-01T06:16:51;20.50;67.80
78649;DHT22;67962;47.310;9.642;2023-08-01T06:19:17;20.40;68.60
78649;DHT22;67962;47.310;9.642;2023-08-01T06:21:43;20.30;69.10
78649;DHT22;67962;47.310;9.642;2023-08-01T06:24:08;20.20;69.50
78649;DHT22;67962;47.310;9.642;2023-08-01T06:26:34;20.20;69.80
78649;DHT22;67962;47.310;9.642;2023-08-01T06:29:00;20.20;70.00
78649;DHT22;67962;47.310;9.642;2023-08-01T06:31:26;20.10;70.10
78649;DHT22;67962;47.310;9.642;2023-08-01T06:33:52;20.10;70.80
78649;DHT22;67962;47.310;9.642;2023-08-01T06:36:17;20.00;70.80
78649;DHT22;67962;47.310;9.642;2023-08-01T06:38:43;20.00;70.90
78649;DHT22;67962;47.310;9.642;2023-08-01T06:41:09;20.10;70.70
78649;DHT22;67962;47.310;9.642;2023-08-01T06:43:35;20.20;70.60
78649;DHT22;67962;47.310;9.642;2023-08-01T06:46:03;20.20;70.60
78649;DHT22;67962;47.310;9.642;2023-08-01T06:48:29;20.10;70.60
78649;DHT22;67962;47.310;9.642;2023-08-01T06:50:55;20.20;70.70
78649;DHT22;67962;47.310;9.642;2023-08-01T06:53:20;20.10;70.80
78649;DHT22;67962;47.310;9.642;2023-08-01T06:55:46;20.10;70.50
78649;DHT22;67962;47.310;9.642;2023-08-01T06:58:13;20.20;70.40
78649;DHT22;67962;47.310;9.642;2023-08-01T07:00:38;20.20;70.30
78649;DHT22;67962;47.310;9.642;2023-08-01T07:03:04;20.30;70.20
78649;DHT22;67962;47.310;9.642;2023-08-01T07:05:30;20.20;71.10
78649;DHT22;67962;47.310;9.642;2023-08-01T07:07:55;20.10;70.80
78649;DHT22;67962;47.310;9.642;2023-08-01T07:10:23;20.20;70.80
78649;DHT22;67962;47.310;9.642;2023-08-01T07:12:49;20.20;70.80
78649;DHT22;67962;47.310;9.642;2023-08-01T07:15:14;20.30;71.10
78649;DHT22;67962;47.310;9.642;2023-08-01T07:17:40;20.30;71.60
78649;DHT22;67962;47.310;9.642;2023-08-01T07:20:06;20.20;71.80
78649;DHT22;67962;47.310;9.642;2023-08-01T07:22:32;20.20;71.80
78649;DHT22;67962;47.310;9.642;2023-08-01T07:24:57;20.20;71.60
78649;DHT22;67962;47.310;9.642;2023-08-01T07:27:23;20.30;71.60
78649;DHT22;67962;47.310;9.642;2023-08-01T07:29:49;20.30;71.70
78649;DHT22;67962;47.310;9.642;2023-08-01T07:32:14;20.30;71.80
78649;DHT22;67962;47.310;9.642;2023-08-01T07:34:40;20.40;71.70
78649;DHT22;67962;47.310;9.642;2023-08-01T07:37:06;20.50;71.60
78649;DHT22;67962;47.310;9.642;2023-08-01T07:39:32;20.60;71.10
78649;DHT22;67962;47.310;9.642;2023-08-01T07:41:59;20.70;70.90
78649;DHT22;67962;47.310;9.642;2023-08-01T07:44:25;20.80;70.60
78649;DHT22;67962;47.310;9.642;2023-08-01T07:46:50;20.70;70.50
78649;DHT22;67962;47.310;9.642;2023-08-01T07:49:16;20.70;70.70
78649;DHT22;67962;47.310;9.642;2023-08-01T07:51:42;20.70;70.80
78649;DHT22;67962;47.310;9.642;2023-08-01T07:54:07;20.80;70.70
78649;DHT22;67962;47.310;9.642;2023-08-01T07:56:33;20.80;70.60
78649;DHT22;67962;47.310;9.642;2023-08-01T07:58:59;20.70;70.70
78649;DHT22;67962;47.310;9.642;2023-08-01T08:01:24;20.70;71.00
78649;DHT22;67962;47.310;9.642;2023-08-01T08:03:50;20.70;71.30
78649;DHT22;67962;47.310;9.642;2023-08-01T08:06:16;20.70;71.30
78649;DHT22;67962;47.310;9.642;2023-08-01T08:08:41;20.70;71.50
78649;DHT22;67962;47.310;9.642;2023-08-01T08:11:07;20.70;71.80
78649;DHT22;67962;47.310;9.642;2023-08-01T08:13:33;20.80;71.50
78649;DHT22;67962;47.310;9.642;2023-08-01T08:15:59;20.80;70.80
78649;DHT22;67962;47.310;9.642;2023-08-01T08:18:25;20.80;70.70
78649;DHT22;67962;47.310;9.642;2023-08-01T08:20:52;20.80;70.80
78649;DHT22;67962;47.310;9.642;2023-08-01T08:23:17;20.80;71.20
78649;DHT22;67962;47.310;9.642;2023-08-01T08:25:44;20.80;71.50
78649;DHT22;67962;47.310;9.642;2023-08-01T08:28:12;20.80;71.80
78649;DHT22;67962;47.310;9.642;2023-08-01T08:30:38;20.80;72.10
78649;DHT22;67962;47.310;9.642;2023-08-01T08:33:04;20.80;72.10
78649;DHT22;67962;47.310;9.642;2023-08-01T08:35:32;20.80;72.20
78649;DHT22;67962;47.310;9.642;2023-08-01T08:38:01;20.80;72.20
78649;DHT22;67962;47.310;9.642;2023-08-01T08:40:27;20.90;72.20
78649;DHT22;67962;47.310;9.642;2023-08-01T08:42:53;21.00;71.50
78649;DHT22;67962;47.310;9.642;2023-08-01T08:45:20;21.00;71.40
78649;DHT22;67962;47.310;9.642;2023-08-01T08:47:53;21.10;71.30
78649;DHT22;67962;47.310;9.642;2023-08-01T08:50:20;21.10;71.60
78649;DHT22;67962;47.310;9.642;2023-08-01T08:52:46;21.10;71.80
78649;DHT22;67962;47.310;9.642;2023-08-01T08:55:12;21.10;72.10
78649;DHT22;67962;47.310;9.642;2023-08-01T08:57:38;21.00;72.30
78649;DHT22;67962;47.310;9.642;2023-08-01T09:00:05;21.10;72.30
78649;DHT22;67962;47.310;9.642;2023-08-01T09:02:33;21.00;72.60
78649;DHT22;67962;47.310;9.642;2023-08-01T09:04:59;20.90;72.60
78649;DHT22;67962;47.310;9.642;2023-08-01T09:07:29;20.90;73.00
78649;DHT22;67962;47.310;9.642;2023-08-01T09:09:55;20.80;73.00
78649;DHT22;67962;47.310;9.642;2023-08-01T09:12:21;20.80;73.50
78649;DHT22;67962;47.310;9.642;2023-08-01T09:14:50;20.70;73.90
78649;DHT22;67962;47.310;9.642;2023-08-01T09:17:16;20.60;74.10
78649;DHT22;67962;47.310;9.642;2023-08-01T09:19:43;20.60;74.30
78649;DHT22;67962;47.310;9.642;2023-08-01T09:22:11;20.60;74.30
78649;DHT22;67962;47.310;9.642;2023-08-01T09:24:37;20.60;74.20
78649;DHT22;67962;47.310;9.642;2023-08-01T09:27:03;20.60;74.10
78649;DHT22;67962;47.310;9.642;2023-08-01T09:37:11;20.30;73.20
78649;DHT22;67962;47.310;9.642;2023-08-01T09:39:37;20.30;74.00
78649;DHT22;67962;47.310;9.642;2023-08-01T09:49:22;20.50;73.20
78649;DHT22;67962;47.310;9.642;2023-08-01T09:59:07;21.00;73.10
78649;DHT22;67962;47.310;9.642;2023-08-01T10:04:00;20.90;72.40
78649;DHT22;67962;47.310;9.642;2023-08-01T10:06:29;20.80;71.90
78649;DHT22;67962;47.310;9.642;2023-08-01T10:08:54;20.90;71.40
78649;DHT22;67962;47.310;9.642;2023-08-01T10:11:21;21.10;71.70
78649;DHT22;67962;47.310;9.642;2023-08-01T10:13:48;21.10;71.40
78649;DHT22;67962;47.310;9.642;2023-08-01T10:16:15;21.20;70.00
78649;DHT22;67962;47.310;9.642;2023-08-01T10:18:42;21.20;70.70
78649;DHT22;67962;47.310;9.642;2023-08-01T10:26:06;21.50;69.60
78649;DHT22;67962;47.310;9.642;2023-08-01T10:35:56;21.50;67.20
78649;DHT22;67962;47.310;9.642;2023-08-01T10:38:22;21.50;66.50
78649;DHT22;67962;47.310;9.642;2023-08-01T10:40:47;21.50;65.90
78649;DHT22;67962;47.310;9.642;2023-08-01T10:45:38;21.30;64.40
78649;DHT22;67962;47.310;9.642;2023-08-01T10:48:07;21.40;66.00
78649;DHT22;67962;47.310;9.642;2023-08-01T10:50:33;21.50;65.80
78649;DHT22;67962;47.310;9.642;2023-08-01T10:55:27;21.70;65.10
78649;DHT22;67962;47.310;9.642;2023-08-01T10:57:53;21.90;65.70
78649;DHT22;67962;47.310;9.642;2023-08-01T11:00:19;21.90;65.30
78649;DHT22;67962;47.310;9.642;2023-08-01T11:05:15;21.90;64.90
78649;DHT22;67962;47.310;9.642;2023-08-01T11:07:40;22.00;65.60
78649;DHT22;67962;47.310;9.642;2023-08-01T11:15:02;22.20;62.40
78649;DHT22;67962;47.310;9.642;2023-08-01T11:19:34;22.20;62.50
78649;DHT22;67962;47.310;9.642;2023-08-01T11:24:25;22.40;61.40
78649;DHT22;67962;47.310;9.642;2023-08-01T11:29:17;22.40;61.00
78649;DHT22;67962;47.310;9.642;2023-08-01T11:34:09;22.00;61.10
78649;DHT22;67962;47.310;9.642;2023-08-01T11:39:05;21.70;61.00
78649;DHT22;67962;47.310;9.642;2023-08-01T11:41:32;21.70;60.40
78649;DHT22;67962;47.310;9.642;2023-08-01T11:48:58;21.60;62.10
78649;DHT22;67962;47.310;9.642;2023-08-01T12:01:11;21.50;61.90
78649;DHT22;67962;47.310;9.642;2023-08-01T12:06:06;21.40;61.80
78649;DHT22;67962;47.310;9.642;2023-08-01T12:11:01;21.20;61.90
78649;DHT22;67962;47.310;9.642;2023-08-01T12:15:55;21.20;62.30
78649;DHT22;67962;47.310;9.642;2023-08-01T12:20:53;21.10;62.60
78649;DHT22;67962;47.310;9.642;2023-08-01T12:23:19;21.10;62.50
78649;DHT22;67962;47.310;9.642;2023-08-01T12:25:48;21.10;62.50
78649;DHT22;67962;47.310;9.642;2023-08-01T12:28:15;21.20;63.30
78649;DHT22;67962;47.310;9.642;2023-08-01T12:33:08;21.30;62.50
78649;DHT22;67962;47.310;9.642;2023-08-01T12:38:00;21.30;61.70
78649;DHT22;67962;47.310;9.642;2023-08-01T12:42:51;21.30;60.20
78649;DHT22;67962;47.310;9.642;2023-08-01T12:47:42;21.30;59.70
78649;DHT22;67962;47.310;9.642;2023-08-01T12:55:02;21.50;59.50
78649;DHT22;67962;47.310;9.642;2023-08-01T12:59:55;21.50;60.10
78649;DHT22;67962;47.310;9.642;2023-08-01T13:02:21;21.50;59.60
78649;DHT22;67962;47.310;9.642;2023-08-01T13:04:46;21.50;59.60
78649;DHT22;67962;47.310;9.642;2023-08-01T13:12:06;21.50;60.50
78649;DHT22;67962;47.310;9.642;2023-08-01T13:14:32;21.50;60.30
78649;DHT22;67962;47.310;9.642;2023-08-01T13:24:15;21.60;59.20
78649;DHT22;67962;47.310;9.642;2023-08-01T13:26:42;21.70;60.70
78649;DHT22;67962;47.310;9.642;2023-08-01T13:34:02;22.00;60.20
78649;DHT22;67962;47.310;9.642;2023-08-01T13:38:53;22.00;59.20
78649;DHT22;67962;47.310;9.642;2023-08-01T13:41:51;22.00;59.90
78649;DHT22;67962;47.310;9.642;2023-08-01T13:44:17;22.20;60.30
78649;DHT22;67962;47.310;9.642;2023-08-01T13:46:43;22.40;59.30
78649;DHT22;67962;47.310;9.642;2023-08-01T13:49:08;22.50;59.20
78649;DHT22;67962;47.310;9.642;2023-08-01T13:51:34;22.80;58.20
78649;DHT22;67962;47.310;9.642;2023-08-01T13:56:25;23.00;56.50
78649;DHT22;67962;47.310;9.642;2023-08-01T13:58:52;23.20;55.70
78649;DHT22;67962;47.310;9.642;2023-08-01T14:01:18;23.20;58.00
78649;DHT22;67962;47.310;9.642;2023-08-01T14:08:38;23.50;55.60
78649;DHT22;67962;47.310;9.642;2023-08-01T14:11:06;23.50;55.30
78649;DHT22;67962;47.310;9.642;2023-08-01T14:18:23;23.80;55.10
78649;DHT22;67962;47.310;9.642;2023-08-01T14:20:49;23.80;53.70
78649;DHT22;67962;47.310;9.642;2023-08-01T14:25:40;23.90;53.70
78649;DHT22;67962;47.310;9.642;2023-08-01T14:28:06;23.80;52.30
78649;DHT22;67962;47.310;9.642;2023-08-01T14:30:31;23.70;52.80
78649;DHT22;67962;47.310;9.642;2023-08-01T14:42:41;24.70;51.70
78649;DHT22;67962;47.310;9.642;2023-08-01T14:45:07;24.80;50.60
78649;DHT22;67962;47.310;9.642;2023-08-01T14:49:58;24.80;49.80
78649;DHT22;67962;47.310;9.642;2023-08-01T14:52:24;24.80;50.00
78649;DHT22;67962;47.310;9.642;2023-08-01T14:57:15;24.80;48.70
78649;DHT22;67962;47.310;9.642;2023-08-01T14:59:40;24.70;49.60
78649;DHT22;67962;47.310;9.642;2023-08-01T15:02:06;24.60;48.00
78649;DHT22;67962;47.310;9.642;2023-08-01T15:04:32;24.50;46.70
78649;DHT22;67962;47.310;9.642;2023-08-01T15:09:26;24.20;47.10
78649;DHT22;67962;47.310;9.642;2023-08-01T15:11:52;24.10;47.70
78649;DHT22;67962;47.310;9.642;2023-08-01T15:14:17;24.10;48.20
78649;DHT22;67962;47.310;9.642;2023-08-01T15:16:43;24.00;48.70
78649;DHT22;67962;47.310;9.642;2023-08-01T15:26:25;23.30;53.40
78649;DHT22;67962;47.310;9.642;2023-08-01T15:28:50;23.20;55.60
78649;DHT22;67962;47.310;9.642;2023-08-01T15:31:16;22.90;56.10
78649;DHT22;67962;47.310;9.642;2023-08-01T15:36:09;22.50;55.70
78649;DHT22;67962;47.310;9.642;2023-08-01T15:41:01;22.30;57.50
78649;DHT22;67962;47.310;9.642;2023-08-01T15:43:30;22.00;58.80
78649;DHT22;67962;47.310;9.642;2023-08-01T15:48:32;21.60;60.00
78649;DHT22;67962;47.310;9.642;2023-08-01T15:50:59;21.50;61.50
78649;DHT22;67962;47.310;9.642;2023-08-01T15:53:24;21.40;62.30
78649;DHT22;67962;47.310;9.642;2023-08-01T15:55:55;21.40;62.60
78649;DHT22;67962;47.310;9.642;2023-08-01T15:58:21;21.20;64.20
78649;DHT22;67962;47.310;9.642;2023-08-01T16:00:47;21.00;64.60
78649;DHT22;67962;47.310;9.642;2023-08-01T16:03:14;20.90;64.70
78649;DHT22;67962;47.310;9.642;2023-08-01T16:05:40;20.80;65.40
78649;DHT22;67962;47.310;9.642;2023-08-01T16:08:06;20.70;66.50
78649;DHT22;67962;47.310;9.642;2023-08-01T16:10:32;20.50;67.60
78649;DHT22;67962;47.310;9.642;2023-08-01T16:12:58;20.40;67.40
78649;DHT22;67962;47.310;9.642;2023-08-01T16:15:24;20.50;67.30
78649;DHT22;67962;47.310;9.642;2023-08-01T16:17:50;20.40;67.30
78649;DHT22;67962;47.310;9.642;2023-08-01T16:20:18;20.50;67.50
78649;DHT22;67962;47.310;9.642;2023-08-01T16:22:44;20.30;68.20
78649;DHT22;67962;47.310;9.642;2023-08-01T16:25:12;20.30;68.80
78649;DHT22;67962;47.310;9.642;2023-08-01T16:27:38;20.30;68.70
78649;DHT22;67962;47.310;9.642;2023-08-01T16:30:05;20.30;69.90
78649;DHT22;67962;47.310;9.642;2023-08-01T16:32:31;20.10;69.60
78649;DHT22;67962;47.310;9.642;2023-08-01T16:34:58;20.00;70.80
78649;DHT22;67962;47.310;9.642;2023-08-01T16:37:24;19.90;70.60
78649;DHT22;67962;47.310;9.642;2023-08-01T16:39:50;19.80;71.10
78649;DHT22;67962;47.310;9.642;2023-08-01T16:42:17;19.90;69.20
78649;DHT22;67962;47.310;9.642;2023-08-01T16:44:43;19.90;70.20
78649;DHT22;67962;47.310;9.642;2023-08-01T16:47:09;19.90;70.40
78649;DHT22;67962;47.310;9.642;2023-08-01T16:49:35;19.80;70.40
78649;DHT22;67962;47.310;9.642;2023-08-01T16:52:02;19.80;70.60
78649;DHT22;67962;47.310;9.642;2023-08-01T16:54:28;19.80;70.90
78649;DHT22;67962;47.310;9.642;2023-08-01T16:56:55;19.80;70.20
78649;DHT22;67962;47.310;9.642;2023-08-01T16:59:21;19.80;70.90
78649;DHT22;67962;47.310;9.642;2023-08-01T17:01:47;19.90;69.50
78649;DHT22;67962;47.310;9.642;2023-08-01T17:04:15;19.90;69.30
78649;DHT22;67962;47.310;9.642;2023-08-01T17:06:41;19.80;69.70
78649;DHT22;67962;47.310;9.642;2023-08-01T17:09:08;19.80;69.40
78649;DHT22;67962;47.310;9.642;2023-08-01T17:11:35;19.80;69.60
78649;DHT22;67962;47.310;9.642;2023-08-01T17:14:01;19.80;70.40
78649;DHT22;67962;47.310;9.642;2023-08-01T17:16:27;19.60;69.30
78649;DHT22;67962;47.310;9.642;2023-08-01T17:18:54;19.60;71.20
78649;DHT22;67962;47.310;9.642;2023-08-01T17:21:20;19.60;70.70
78649;DHT22;67962;47.310;9.642;2023-08-01T17:23:47;19.60;71.20
78649;DHT22;67962;47.310;9.642;2023-08-01T17:26:13;19.60;70.50
78649;DHT22;67962;47.310;9.642;2023-08-01T17:28:39;19.60;71.10
78649;DHT22;67962;47.310;9.642;2023-08-01T17:31:07;19.60;71.90
78649;DHT22;67962;47.310;9.642;2023-08-01T17:33:36;19.50;72.50
78649;DHT22;67962;47.310;9.642;2023-08-01T17:36:02;19.40;72.10
78649;DHT22;67962;47.310;9.642;2023-08-01T17:38:29;19.40;72.00
78649;DHT22;67962;47.310;9.642;2023-08-01T17:40:56;19.40;72.10
78649;DHT22;67962;47.310;9.642;2023-08-01T17:43:22;19.40;71.60
78649;DHT22;67962;47.310;9.642;2023-08-01T17:45:49;19.50;67.60
78649;DHT22;67962;47.310;9.642;2023-08-01T17:48:15;19.50;69.60
78649;DHT22;67962;47.310;9.642;2023-08-01T17:50:42;19.50;69.80
78649;DHT22;67962;47.310;9.642;2023-08-01T17:53:09;19.50;70.00
78649;DHT22;67962;47.310;9.642;2023-08-01T17:55:36;19.50;70.10
78649;DHT22;67962;47.310;9.642;2023-08-01T17:58:04;19.50;71.30
78649;DHT22;67962;47.310;9.642;2023-08-01T18:00:31;19.50;70.60
78649;DHT22;67962;47.310;9.642;2023-08-01T18:02:57;19.50;69.60
78649;DHT22;67962;47.310;9.642;2023-08-01T18:05:23;19.60;69.00
78649;DHT22;67962;47.310;9.642;2023-08-01T18:07:50;19.60;66.00
78649;DHT22;67962;47.310;9.642;2023-08-01T18:10:16;19.60;68.10
78649;DHT22;67962;47.310;9.642;2023-08-01T18:12:47;19.60;64.50